createdAt,value
2023-03-17T00:01:54.741Z,96835.22
2023-03-17T00:04:26.376Z,96830.91
2023-03-17T00:06:53.530Z,96833.22
2023-03-17T00:09:21.090Z,96825.44
2023-03-17T00:11:48.162Z,96817.94
2023-03-17T00:14:14.875Z,96823.28
2023-03-17T00:16:44.206Z,96823.31
2023-03-17T00:19:21.790Z,96822.28
2023-03-17T00:21:49.110Z,96818.88
2023-03-17T00:24:15.949Z,96809.41
2023-03-17T00:26:43.323Z,96814.44
2023-03-17T00:29:10.195Z,96809.25
2023-03-17T00:31:38.071Z,96799.94
2023-03-17T00:34:05.687Z,96802.53
2023-03-17T00:36:33.643Z,96799.84
2023-03-17T00:39:00.473Z,96801.44
2023-03-17T00:41:27.302Z,96798.09
2023-03-17T00:43:54.051Z,96789.63
2023-03-17T00:46:35.768Z,96786.97
2023-03-17T00:49:10.888Z,96781.75
2023-03-17T00:51:37.353Z,96780.88
2023-03-17T00:54:03.959Z,96784.09
2023-03-17T00:56:31.010Z,96780.00
2023-03-17T00:58:57.791Z,96775.19
2023-03-17T01:01:24.285Z,96771.00
2023-03-17T01:03:51.280Z,96769.22
2023-03-17T01:06:17.809Z,96775.91
2023-03-17T01:08:44.860Z,96766.59
2023-03-17T01:11:17.767Z,96762.25
2023-03-17T01:13:44.747Z,96741.50
2023-03-17T01:16:12.354Z,96768.00
2023-03-17T01:18:39.662Z,96769.50
2023-03-17T01:21:06.668Z,96744.13
2023-03-17T01:23:33.407Z,96748.44
2023-03-17T01:26:00.020Z,96738.91
2023-03-17T01:28:26.525Z,96740.56
2023-03-17T01:30:52.938Z,96732.94
2023-03-17T01:33:19.510Z,96711.47
2023-03-17T01:35:46.168Z,96724.59
2023-03-17T01:38:14.897Z,96719.69
2023-03-17T01:40:50.326Z,96724.75
2023-03-17T01:43:28.109Z,96713.00
2023-03-17T01:46:20.932Z,96711.19
2023-03-17T01:48:55.547Z,96697.59
2023-03-17T01:51:32.623Z,96689.94
2023-03-17T01:54:00.058Z,96697.53
2023-03-17T01:56:27.033Z,96685.00
2023-03-17T01:58:55.153Z,96688.53
2023-03-17T02:01:33.362Z,96690.19
2023-03-17T02:04:01.067Z,96685.84
2023-03-17T02:06:27.672Z,96693.34
2023-03-17T02:08:54.075Z,96689.25
2023-03-17T02:11:21.080Z,96696.09
2023-03-17T02:13:47.497Z,96689.19
2023-03-17T02:16:17.688Z,96690.88
2023-03-17T02:18:44.866Z,96694.13
2023-03-17T02:21:37.405Z,96693.97
2023-03-17T02:24:10.606Z,96682.22
2023-03-17T02:26:38.680Z,96696.34
2023-03-17T02:29:05.955Z,96686.03
2023-03-17T02:31:33.501Z,96689.25
2023-03-17T02:33:59.916Z,96686.66
2023-03-17T02:36:26.413Z,96683.31
2023-03-17T02:38:53.207Z,96681.44
2023-03-17T02:41:19.842Z,96677.03
2023-03-17T02:43:46.413Z,96677.72
2023-03-17T02:46:12.906Z,96685.22
2023-03-17T02:48:39.850Z,96682.53
2023-03-17T02:51:06.499Z,96676.44
2023-03-17T02:53:32.983Z,96677.31
2023-03-17T02:55:59.606Z,96683.94
2023-03-17T02:58:26.151Z,96680.50
2023-03-17T03:00:53.126Z,96680.38
2023-03-17T03:03:19.575Z,96676.03
2023-03-17T03:05:47.261Z,96685.25
2023-03-17T03:08:13.870Z,96672.47
2023-03-17T03:10:41.669Z,96670.81
2023-03-17T03:13:08.164Z,96669.94
2023-03-17T03:15:34.564Z,96674.97
2023-03-17T03:18:01.043Z,96669.19
2023-03-17T03:20:27.856Z,96660.81
2023-03-17T03:22:54.529Z,96656.53
2023-03-17T03:25:21.296Z,96655.66
2023-03-17T03:27:47.742Z,96655.69
2023-03-17T03:30:14.507Z,96664.09
2023-03-17T03:32:40.997Z,96669.97
2023-03-17T03:35:08.305Z,96670.72
2023-03-17T03:37:34.749Z,96672.28
2023-03-17T03:40:01.373Z,96668.91
2023-03-17T03:42:27.818Z,96667.16
2023-03-17T03:44:54.223Z,96667.16
2023-03-17T03:47:20.715Z,96670.66
2023-03-17T03:49:47.218Z,96671.53
2023-03-17T03:52:13.667Z,96669.78
2023-03-17T03:54:40.107Z,96662.19
2023-03-17T03:57:06.557Z,96662.13
2023-03-17T03:59:33.034Z,96665.44
2023-03-17T04:01:59.431Z,96663.78
2023-03-17T04:04:25.951Z,96661.31
2023-03-17T04:06:52.412Z,96646.00
2023-03-17T04:09:18.797Z,96648.72
2023-03-17T04:11:45.914Z,96650.31
2023-03-17T04:14:12.651Z,96640.94
2023-03-17T04:16:41.564Z,96641.94
2023-03-17T04:19:09.698Z,96648.75
2023-03-17T04:21:36.114Z,96656.38
2023-03-17T04:24:05.062Z,96639.53
2023-03-17T04:26:32.124Z,96646.44
2023-03-17T04:28:58.888Z,96644.72
2023-03-17T04:31:25.889Z,96637.16
2023-03-17T04:33:52.510Z,96620.97
2023-03-17T04:36:21.642Z,96633.75
2023-03-17T04:38:48.049Z,96633.06
2023-03-17T04:41:15.323Z,96632.13
2023-03-17T04:43:41.994Z,96638.91
2023-03-17T04:46:09.089Z,96633.06
2023-03-17T04:48:35.997Z,96634.78
2023-03-17T04:51:02.726Z,96628.78
2023-03-17T04:53:29.178Z,96637.38
2023-03-17T04:55:56.548Z,96641.56
2023-03-17T04:58:30.416Z,96644.03
2023-03-17T05:00:57.994Z,96652.44
2023-03-17T05:03:27.510Z,96639.91
2023-03-17T05:05:54.277Z,96640.81
2023-03-17T05:08:20.932Z,96647.50
2023-03-17T05:10:47.343Z,96648.28
2023-03-17T05:13:13.808Z,96637.41
2023-03-17T05:15:40.944Z,96635.72
2023-03-17T05:18:08.209Z,96642.34
2023-03-17T05:20:34.599Z,96642.28
2023-03-17T05:23:01.284Z,96642.53
2023-03-17T05:25:27.798Z,96639.16
2023-03-17T05:27:54.368Z,96630.69
2023-03-17T05:30:20.918Z,96634.78
2023-03-17T05:32:47.443Z,96645.59
2023-03-17T05:35:14.004Z,96648.19
2023-03-17T05:37:40.449Z,96648.97
2023-03-17T05:40:08.324Z,96651.47
2023-03-17T05:42:34.752Z,96658.97
2023-03-17T05:45:01.187Z,96664.91
2023-03-17T05:47:28.031Z,96667.28
2023-03-17T05:49:54.477Z,96673.19
2023-03-17T05:52:20.815Z,96669.19
2023-03-17T05:54:48.955Z,96657.50
2023-03-17T05:57:16.258Z,96647.47
2023-03-17T05:59:42.804Z,96644.25
2023-03-17T06:02:11.276Z,96635.75
2023-03-17T06:04:38.918Z,96627.31
2023-03-17T06:07:06.203Z,96633.63
2023-03-17T06:09:33.565Z,96636.13
2023-03-17T06:12:00.525Z,96649.03
2023-03-17T06:14:27.317Z,96645.84
2023-03-17T06:16:54.317Z,96632.34
2023-03-17T06:19:20.903Z,96638.44
2023-03-17T06:21:47.397Z,96636.31
2023-03-17T06:24:14.057Z,96634.56
2023-03-17T06:26:41.070Z,96638.13
2023-03-17T06:29:11.714Z,96634.91
2023-03-17T06:31:39.755Z,96629.28
2023-03-17T06:34:06.632Z,96637.03
2023-03-17T06:36:33.518Z,96634.63
2023-03-17T06:39:00.511Z,96635.72
2023-03-17T06:41:27.547Z,96631.56
2023-03-17T06:43:54.097Z,96638.78
2023-03-17T06:46:20.928Z,96639.09
2023-03-17T06:48:48.390Z,96641.03
2023-03-17T06:51:14.846Z,96647.25
2023-03-17T06:53:41.465Z,96636.84
2023-03-17T06:56:12.582Z,96640.19
2023-03-17T06:58:43.724Z,96634.13
2023-03-17T07:01:10.471Z,96636.25
2023-03-17T07:03:38.475Z,96615.22
2023-03-17T07:06:05.191Z,96635.94
2023-03-17T07:08:31.982Z,96634.78
2023-03-17T07:10:58.944Z,96624.41
2023-03-17T07:13:25.790Z,96621.47
2023-03-17T07:15:54.599Z,96618.44
2023-03-17T07:18:21.784Z,96616.06
2023-03-17T07:20:48.297Z,96611.41
2023-03-17T07:23:24.412Z,96611.81
2023-03-17T07:25:51.536Z,96603.47
2023-03-17T07:28:19.131Z,96614.81
2023-03-17T07:30:46.942Z,96624.41
2023-03-17T07:33:14.578Z,96627.31
2023-03-17T07:35:41.585Z,96622.69
2023-03-17T07:38:08.175Z,96611.16
2023-03-17T07:40:35.470Z,96601.69
2023-03-17T07:43:02.530Z,96615.91
2023-03-17T07:45:29.507Z,96625.00
2023-03-17T07:47:56.073Z,96621.25
2023-03-17T07:50:23.135Z,96620.84
2023-03-17T07:52:49.608Z,96621.16
2023-03-17T07:55:16.559Z,96613.03
2023-03-17T07:57:43.386Z,96623.53
2023-03-17T08:00:10.579Z,96627.38
2023-03-17T08:02:37.524Z,96626.72
2023-03-17T08:05:04.584Z,96621.38
2023-03-17T08:07:31.613Z,96615.22
2023-03-17T08:09:59.769Z,96612.78
2023-03-17T08:12:26.237Z,96618.31
2023-03-17T08:14:53.459Z,96621.94
2023-03-17T08:17:20.123Z,96623.03
2023-03-17T08:19:46.884Z,96630.03
2023-03-17T08:22:13.426Z,96633.69
2023-03-17T08:24:42.829Z,96619.38
2023-03-17T08:27:09.498Z,96614.53
2023-03-17T08:29:36.026Z,96606.16
2023-03-17T08:32:03.363Z,96609.78
2023-03-17T08:34:30.025Z,96605.81
2023-03-17T08:36:56.630Z,96597.38
2023-03-17T08:39:23.032Z,96594.09
2023-03-17T08:41:49.516Z,96588.97
2023-03-17T08:44:16.570Z,96575.41
2023-03-17T08:46:43.124Z,96574.59
2023-03-17T08:49:10.501Z,96562.75
2023-03-17T08:51:37.636Z,96561.06
2023-03-17T08:54:05.729Z,96559.34
2023-03-17T08:56:32.656Z,96557.63
2023-03-17T08:58:59.338Z,96558.47
2023-03-17T09:01:27.307Z,96566.19
2023-03-17T09:03:55.077Z,96570.50
2023-03-17T09:06:22.450Z,96575.59
2023-03-17T09:08:55.055Z,96591.84
2023-03-17T09:11:24.909Z,96578.94
2023-03-17T09:13:51.758Z,96577.19
2023-03-17T09:16:18.697Z,96583.22
2023-03-17T09:18:46.693Z,96576.38
2023-03-17T09:21:14.420Z,96568.63
2023-03-17T09:23:41.513Z,96567.75
2023-03-17T09:26:10.132Z,96559.16
2023-03-17T09:28:37.261Z,96550.63
2023-03-17T09:31:06.312Z,96563.41
2023-03-17T09:33:33.315Z,96562.38
2023-03-17T09:35:59.905Z,96555.44
2023-03-17T09:38:27.516Z,96550.25
2023-03-17T09:41:01.729Z,96548.34
2023-03-17T09:44:06.656Z,96551.72
2023-03-17T09:46:33.106Z,96550.13
2023-03-17T09:49:03.787Z,96555.31
2023-03-17T09:51:32.359Z,96547.56
2023-03-17T09:54:27.532Z,96541.59
2023-03-17T09:57:16.667Z,96533.91
2023-03-17T09:59:47.315Z,96538.19
2023-03-17T10:02:22.951Z,96537.19
2023-03-17T10:04:49.976Z,96518.56
2023-03-17T10:07:23.411Z,96530.56
2023-03-17T10:10:03.352Z,96528.78
2023-03-17T10:12:50.252Z,96525.31
2023-03-17T10:15:43.082Z,96521.91
2023-03-17T10:18:15.940Z,96518.38
2023-03-17T10:21:04.352Z,96527.00
2023-03-17T10:23:33.683Z,96524.47
2023-03-17T10:26:24.539Z,96521.03
2023-03-17T10:28:51.478Z,96520.22
2023-03-17T10:31:28.715Z,96522.84
2023-03-17T10:33:58.378Z,96513.41
2023-03-17T10:36:40.059Z,96520.16
2023-03-17T10:39:08.145Z,96513.22
2023-03-17T10:41:41.636Z,96518.28
2023-03-17T10:44:11.062Z,96512.19
2023-03-17T10:46:40.048Z,96509.50
2023-03-17T10:49:16.842Z,96510.28
2023-03-17T10:51:46.336Z,96511.00
2023-03-17T10:54:18.300Z,96504.78
2023-03-17T10:56:48.946Z,96499.75
2023-03-17T10:59:25.635Z,96485.19
2023-03-17T11:02:00.537Z,96486.97
2023-03-17T11:04:27.370Z,96493.81
2023-03-17T11:07:00.153Z,96482.53
2023-03-17T11:09:29.365Z,96479.03
2023-03-17T11:12:08.897Z,96470.03
2023-03-17T11:14:35.561Z,96472.44
2023-03-17T11:17:12.597Z,96480.16
2023-03-17T11:19:50.019Z,96476.66
2023-03-17T11:22:24.099Z,96477.28
2023-03-17T11:25:04.330Z,96478.72
2023-03-17T11:27:34.862Z,96471.50
2023-03-17T11:30:14.928Z,96471.09
2023-03-17T11:32:47.907Z,96472.03
2023-03-17T11:35:53.054Z,96463.63
2023-03-17T11:38:29.729Z,96468.31
2023-03-17T11:41:02.164Z,96468.09
2023-03-17T11:43:45.502Z,96469.44
2023-03-17T11:46:30.324Z,96455.66
2023-03-17T11:49:20.461Z,96444.13
2023-03-17T11:52:08.286Z,96447.19
2023-03-17T11:54:56.635Z,96437.69
2023-03-17T11:57:46.201Z,96422.16
2023-03-17T12:00:27.500Z,96418.38
2023-03-17T12:03:04.242Z,96422.41
2023-03-17T12:05:31.567Z,96418.75
2023-03-17T12:08:06.061Z,96422.88
2023-03-17T12:10:40.448Z,96415.84
2023-03-17T12:13:16.717Z,96418.31
2023-03-17T12:15:43.557Z,96414.84
2023-03-17T12:18:18.261Z,96414.91
2023-03-17T12:21:01.554Z,96405.47
2023-03-17T12:23:51.130Z,96404.31
2023-03-17T12:26:35.079Z,96403.09
2023-03-17T12:29:12.260Z,96392.50
2023-03-17T12:31:48.803Z,96390.31
2023-03-17T12:34:20.837Z,96386.16
2023-03-17T12:36:48.730Z,96391.19
2023-03-17T12:39:19.246Z,96393.34
2023-03-17T12:42:24.723Z,96393.09
2023-03-17T12:45:14.943Z,96380.50
2023-03-17T12:47:59.808Z,96379.53
2023-03-17T12:50:50.323Z,96381.97
2023-03-17T12:53:31.562Z,96374.00
2023-03-17T12:56:08.099Z,96375.16
2023-03-17T12:58:40.372Z,96368.19
2023-03-17T13:01:18.429Z,96362.09
2023-03-17T13:04:14.537Z,96359.66
2023-03-17T13:06:46.142Z,96351.00
2023-03-17T13:09:31.851Z,96357.84
2023-03-17T13:12:00.415Z,96354.75
2023-03-17T13:14:47.610Z,96351.94
2023-03-17T13:17:17.507Z,96355.41
2023-03-17T13:20:08.739Z,96348.16
2023-03-17T13:23:10.587Z,96350.03
2023-03-17T13:25:41.326Z,96344.03
2023-03-17T13:28:10.891Z,96351.03
2023-03-17T13:30:37.589Z,96347.03
2023-03-17T13:33:10.547Z,96334.06
2023-03-17T13:35:42.086Z,96338.03
2023-03-17T13:38:29.803Z,96339.31
2023-03-17T13:41:13.812Z,96331.41
2023-03-17T13:44:01.806Z,96331.22
2023-03-17T13:46:37.548Z,96327.47
2023-03-17T13:49:26.550Z,96332.56
2023-03-17T13:52:03.442Z,96329.81
2023-03-17T13:54:40.513Z,96331.75
2023-03-17T13:57:25.647Z,96333.44
2023-03-17T14:00:05.518Z,96329.50
2023-03-17T14:02:35.135Z,96328.44
2023-03-17T14:05:06.360Z,96321.31
2023-03-17T14:07:45.540Z,96308.81
2023-03-17T14:10:21.194Z,96312.53
2023-03-17T14:13:06.141Z,96309.22
2023-03-17T14:15:37.796Z,96302.66
2023-03-17T14:18:15.390Z,96294.53
2023-03-17T14:20:53.700Z,96296.44
2023-03-17T14:23:21.395Z,96297.31
2023-03-17T14:25:48.000Z,96294.91
2023-03-17T14:28:19.127Z,96286.56
2023-03-17T14:30:54.186Z,96285.16
2023-03-17T14:33:34.560Z,96279.50
2023-03-17T14:36:02.944Z,96277.09
2023-03-17T14:38:32.162Z,96285.00
2023-03-17T14:41:13.608Z,96275.69
2023-03-17T14:43:41.881Z,96275.13
2023-03-17T14:46:24.654Z,96278.78
2023-03-17T14:48:59.893Z,96270.34
2023-03-17T14:51:36.503Z,96267.88
2023-03-17T14:54:27.613Z,96268.84
2023-03-17T14:57:02.286Z,96264.66
2023-03-17T14:59:36.173Z,96263.09
2023-03-17T15:02:17.168Z,96253.81
2023-03-17T15:04:53.560Z,96260.78
2023-03-17T15:07:39.254Z,96255.72
2023-03-17T15:10:20.017Z,96254.19
2023-03-17T15:12:48.261Z,96250.75
2023-03-17T15:15:28.651Z,96255.16
2023-03-17T15:17:57.818Z,96259.69
2023-03-17T15:20:25.131Z,96260.53
2023-03-17T15:23:00.168Z,96266.59
2023-03-17T15:25:39.867Z,96261.50
2023-03-17T15:28:14.325Z,96271.84
2023-03-17T15:30:47.692Z,96264.19
2023-03-17T15:33:34.590Z,96268.44
2023-03-17T15:36:01.562Z,96265.91
2023-03-17T15:38:28.711Z,96262.47
2023-03-17T15:40:55.667Z,96265.06
2023-03-17T15:43:22.336Z,96263.44
2023-03-17T15:45:59.842Z,96253.03
2023-03-17T15:48:28.142Z,96260.88
2023-03-17T15:50:56.707Z,96255.84
2023-03-17T15:53:24.169Z,96255.09
2023-03-17T15:55:51.122Z,96255.22
2023-03-17T15:58:17.553Z,96256.13
2023-03-17T16:00:57.303Z,96248.63
2023-03-17T16:03:35.302Z,96241.91
2023-03-17T16:06:03.984Z,96235.94
2023-03-17T16:08:31.353Z,96234.31
2023-03-17T16:10:57.908Z,96228.50
2023-03-17T16:13:24.314Z,96237.19
2023-03-17T16:15:55.011Z,96229.59
2023-03-17T16:18:31.524Z,96229.78
2023-03-17T16:20:58.193Z,96223.03
2023-03-17T16:23:28.516Z,96229.94
2023-03-17T16:26:04.617Z,96205.19
2023-03-17T16:28:38.470Z,96217.22
2023-03-17T16:31:30.225Z,96213.13
2023-03-17T16:33:57.337Z,96218.38
2023-03-17T16:36:25.424Z,96205.69
2023-03-17T16:38:52.042Z,96214.34
2023-03-17T16:41:24.334Z,96213.63
2023-03-17T16:43:55.104Z,96219.69
2023-03-17T16:46:22.703Z,96224.13
2023-03-17T16:48:50.553Z,96228.47
2023-03-17T16:51:17.978Z,96226.06
2023-03-17T16:53:45.867Z,96223.56
2023-03-17T16:56:19.082Z,96220.22
2023-03-17T16:58:46.624Z,96214.31
2023-03-17T17:01:17.793Z,96208.38
2023-03-17T17:03:44.908Z,96221.38
2023-03-17T17:06:14.258Z,96218.91
2023-03-17T17:08:45.639Z,96213.09
2023-03-17T17:11:13.451Z,96216.63
2023-03-17T17:13:45.409Z,96220.16
2023-03-17T17:16:30.290Z,96218.56
2023-03-17T17:18:58.351Z,96216.09
2023-03-17T17:21:26.254Z,96220.41
2023-03-17T17:23:53.446Z,96224.78
2023-03-17T17:26:21.120Z,96224.88
2023-03-17T17:28:47.639Z,96220.69
2023-03-17T17:31:14.095Z,96230.22
2023-03-17T17:33:40.603Z,96220.06
2023-03-17T17:36:13.419Z,96232.16
2023-03-17T17:38:40.017Z,96243.38
2023-03-17T17:41:09.033Z,96239.22
2023-03-17T17:43:35.690Z,96244.44
2023-03-17T17:46:02.314Z,96244.56
2023-03-17T17:48:28.889Z,96246.38
2023-03-17T17:50:56.863Z,96253.31
2023-03-17T17:53:23.588Z,96259.31
2023-03-17T17:55:50.499Z,96247.44
2023-03-17T17:58:23.752Z,96248.34
2023-03-17T18:00:51.489Z,96250.94
2023-03-17T18:03:22.185Z,96249.28
2023-03-17T18:05:48.701Z,96251.00
2023-03-17T18:08:15.490Z,96251.03
2023-03-17T18:10:41.991Z,96245.91
2023-03-17T18:13:08.496Z,96243.34
2023-03-17T18:15:35.009Z,96251.03
2023-03-17T18:18:01.757Z,96252.72
2023-03-17T18:20:28.248Z,96251.03
2023-03-17T18:22:54.760Z,96251.91
2023-03-17T18:25:21.413Z,96256.22
2023-03-17T18:27:48.331Z,96259.63
2023-03-17T18:30:26.578Z,96263.06
2023-03-17T18:33:00.486Z,96263.94
2023-03-17T18:35:28.629Z,96262.22
2023-03-17T18:37:57.345Z,96255.41
2023-03-17T18:40:26.039Z,96253.72
2023-03-17T18:42:52.482Z,96251.16
2023-03-17T18:45:19.212Z,96249.44
2023-03-17T18:47:45.656Z,96257.16
2023-03-17T18:50:14.490Z,96246.03
2023-03-17T18:52:42.445Z,96253.75
2023-03-17T18:55:11.123Z,96251.19
2023-03-17T18:57:37.631Z,96247.78
2023-03-17T19:00:05.628Z,96246.94
2023-03-17T19:02:31.999Z,96248.66
2023-03-17T19:04:58.426Z,96250.34
2023-03-17T19:07:24.944Z,96251.22
2023-03-17T19:09:51.699Z,96246.09
2023-03-17T19:12:18.626Z,96249.47
2023-03-17T19:14:45.490Z,96243.50
2023-03-17T19:17:11.942Z,96242.66
2023-03-17T19:19:41.234Z,96244.38
2023-03-17T19:22:07.793Z,96246.91
2023-03-17T19:24:37.059Z,96241.75
2023-03-17T19:27:04.628Z,96234.94
2023-03-17T19:29:32.427Z,96234.94
2023-03-17T19:31:59.316Z,96237.50
2023-03-17T19:34:27.134Z,96240.03
2023-03-17T19:36:53.989Z,96240.88
2023-03-17T19:39:21.051Z,96234.06
2023-03-17T19:41:48.461Z,96243.44
2023-03-17T19:44:14.937Z,96240.03
2023-03-17T19:46:41.402Z,96236.63
2023-03-17T19:49:07.923Z,96234.91
2023-03-17T19:51:34.415Z,96244.28
2023-03-17T19:54:00.904Z,96234.94
2023-03-17T19:56:27.917Z,96227.25
2023-03-17T19:58:54.949Z,96231.50
2023-03-17T20:01:22.779Z,96235.75
2023-03-17T20:03:49.409Z,96233.22
2023-03-17T20:06:16.085Z,96234.06
2023-03-17T20:08:44.159Z,96235.75
2023-03-17T20:11:13.134Z,96234.91
2023-03-17T20:13:39.910Z,96241.72
2023-03-17T20:16:08.210Z,96244.28
2023-03-17T20:18:34.954Z,96243.41
2023-03-17T20:21:05.590Z,96251.91
2023-03-17T20:23:32.868Z,96247.66
2023-03-17T20:25:59.804Z,96249.34
2023-03-17T20:28:27.708Z,96252.78
2023-03-17T20:30:59.790Z,96248.47
2023-03-17T20:33:26.558Z,96252.72
2023-03-17T20:35:53.323Z,96247.56
2023-03-17T20:38:19.833Z,96250.97
2023-03-17T20:40:46.376Z,96254.34
2023-03-17T20:43:13.018Z,96257.75
2023-03-17T20:45:39.514Z,96259.41
2023-03-17T20:48:06.409Z,96251.75
2023-03-17T20:50:35.245Z,96250.88
2023-03-17T20:53:02.480Z,96255.06
2023-03-17T20:55:30.742Z,96255.91
2023-03-17T20:57:58.741Z,96252.50
2023-03-17T21:00:26.180Z,96248.19
2023-03-17T21:02:53.126Z,96245.59
2023-03-17T21:05:25.626Z,96254.03
2023-03-17T21:07:52.607Z,96265.91
2023-03-17T21:10:19.372Z,96263.31
2023-03-17T21:12:46.971Z,96262.41
2023-03-17T21:15:14.630Z,96258.16
2023-03-17T21:17:42.277Z,96264.91
2023-03-17T21:20:11.576Z,96261.47
2023-03-17T21:22:40.067Z,96265.63
2023-03-17T21:25:08.698Z,96266.47
2023-03-17T21:27:37.710Z,96274.94
2023-03-17T21:30:11.093Z,96274.84
2023-03-17T21:32:38.025Z,96274.81
2023-03-17T21:35:06.465Z,96273.06
2023-03-17T21:37:32.857Z,96279.84
2023-03-17T21:39:59.345Z,96278.97
2023-03-17T21:42:27.167Z,96284.03
2023-03-17T21:44:53.659Z,96282.31
2023-03-17T21:47:20.118Z,96278.00
2023-03-17T21:49:46.921Z,96279.72
2023-03-17T21:52:14.931Z,96275.44
2023-03-17T21:54:42.051Z,96282.16
2023-03-17T21:57:08.794Z,96271.84
2023-03-17T21:59:35.709Z,96277.72
2023-03-17T22:02:02.882Z,96280.22
2023-03-17T22:04:29.857Z,96287.81
2023-03-17T22:06:57.027Z,96286.97
2023-03-17T22:09:23.447Z,96283.50
2023-03-17T22:11:49.992Z,96284.28
2023-03-17T22:14:20.057Z,96286.75
2023-03-17T22:16:47.924Z,96289.31
2023-03-17T22:19:14.646Z,96288.38
2023-03-17T22:21:42.118Z,96278.00
2023-03-17T22:24:09.108Z,96289.00
2023-03-17T22:26:35.802Z,96290.72
2023-03-17T22:29:02.527Z,96296.59
2023-03-17T22:31:30.053Z,96295.75
2023-03-17T22:33:58.241Z,96298.25
2023-03-17T22:36:25.992Z,96300.81
2023-03-17T22:38:55.878Z,96298.19
2023-03-17T22:41:25.838Z,96297.34
2023-03-17T22:43:52.776Z,96298.13
2023-03-17T22:46:20.602Z,96306.66
2023-03-17T22:48:47.361Z,96300.69
2023-03-17T22:51:18.110Z,96294.66
2023-03-17T22:53:45.277Z,96302.28
2023-03-17T22:56:13.024Z,96297.91
2023-03-17T22:58:40.428Z,96307.16
2023-03-17T23:01:08.023Z,96319.81
2023-03-17T23:03:35.190Z,96315.50
2023-03-17T23:06:03.803Z,96307.78
2023-03-17T23:08:32.054Z,96301.66
2023-03-17T23:11:00.678Z,96314.34
2023-03-17T23:13:27.690Z,96311.72
2023-03-17T23:15:54.146Z,96312.56
2023-03-17T23:18:20.713Z,96327.03
2023-03-17T23:20:47.667Z,96321.88
2023-03-17T23:23:14.613Z,96324.28
2023-03-17T23:25:41.258Z,96319.13
2023-03-17T23:28:09.060Z,96318.16
2023-03-17T23:30:36.981Z,96320.84
2023-03-17T23:33:04.815Z,96322.41
2023-03-17T23:35:31.543Z,96324.88
2023-03-17T23:37:57.992Z,96323.06
2023-03-17T23:40:24.524Z,96331.38
2023-03-17T23:42:54.241Z,96328.66
2023-03-17T23:45:23.168Z,96331.19
2023-03-17T23:47:52.054Z,96325.19
2023-03-17T23:50:19.416Z,96336.19
2023-03-17T23:52:47.073Z,96321.81
2023-03-17T23:55:14.474Z,96331.03
2023-03-17T23:57:41.577Z,96334.47
